createdAt,value
2019-03-03T00:01:32.092Z,55.88
2019-03-03T00:04:02.348Z,60.33
2019-03-03T00:06:32.635Z,59.33
2019-03-03T00:09:02.994Z,60.05
2019-03-03T00:11:34.708Z,58.25
2019-03-03T00:14:04.957Z,58.38
2019-03-03T00:16:35.256Z,53.95
2019-03-03T00:19:05.521Z,52.10
2019-03-03T00:21:35.896Z,54.13
2019-03-03T00:24:06.151Z,53.60
2019-03-03T00:26:36.326Z,54.05
2019-03-03T00:29:06.585Z,55.50
2019-03-03T00:31:38.589Z,55.33
2019-03-03T00:34:08.869Z,54.50
2019-03-03T00:36:58.913Z,55.58
2019-03-03T00:39:36.704Z,53.87
2019-03-03T00:42:17.480Z,54.85
2019-03-03T00:44:55.379Z,57.62
2019-03-03T00:47:29.931Z,57.55
2019-03-03T00:50:01.749Z,56.30
2019-03-03T00:52:36.557Z,58.17
2019-03-03T00:55:14.882Z,54.05
2019-03-03T00:57:46.635Z,52.60
2019-03-03T01:00:30.155Z,52.27
2019-03-03T01:03:07.689Z,52.53
2019-03-03T01:05:48.169Z,53.92
2019-03-03T01:08:19.965Z,55.60
2019-03-03T01:10:57.792Z,59.10
2019-03-03T01:13:44.832Z,54.93
2019-03-03T01:16:19.607Z,57.33
2019-03-03T01:18:54.149Z,54.85
2019-03-03T01:21:25.983Z,53.05
2019-03-03T01:23:57.762Z,53.55
2019-03-03T01:26:28.017Z,54.90
2019-03-03T01:28:58.193Z,52.50
2019-03-03T01:31:28.480Z,51.85
2019-03-03T01:33:58.771Z,53.15
2019-03-03T01:36:29.113Z,49.03
2019-03-03T01:38:59.303Z,50.00
2019-03-03T01:41:29.541Z,50.40
2019-03-03T01:43:59.731Z,50.35
2019-03-03T01:46:30.597Z,49.38
2019-03-03T01:49:01.980Z,47.70
2019-03-03T01:51:32.215Z,49.93
2019-03-03T01:54:02.409Z,48.17
2019-03-03T01:56:32.657Z,48.13
2019-03-03T01:59:02.857Z,49.25
2019-03-03T02:01:33.705Z,50.43
2019-03-03T02:04:03.980Z,49.42
2019-03-03T02:06:34.213Z,45.50
2019-03-03T02:09:06.856Z,46.48
2019-03-03T02:11:37.428Z,46.83
2019-03-03T02:14:07.731Z,47.43
2019-03-03T02:16:37.985Z,50.43
2019-03-03T02:19:08.162Z,48.68
2019-03-03T02:21:38.391Z,48.45
2019-03-03T02:24:08.585Z,45.65
2019-03-03T02:26:38.843Z,42.80
2019-03-03T02:29:09.066Z,44.88
2019-03-03T02:31:39.299Z,43.05
2019-03-03T02:34:09.480Z,45.55
2019-03-03T02:36:39.724Z,47.15
2019-03-03T02:39:14.939Z,45.03
2019-03-03T02:41:45.307Z,46.95
2019-03-03T02:44:16.697Z,45.80
2019-03-03T02:46:46.977Z,45.92
2019-03-03T02:49:17.174Z,49.75
2019-03-03T02:51:47.444Z,46.35
2019-03-03T02:54:17.621Z,45.52
2019-03-03T02:56:47.885Z,45.63
2019-03-03T02:59:18.070Z,48.20
2019-03-03T03:01:49.924Z,43.60
2019-03-03T03:04:20.118Z,46.30
2019-03-03T03:06:52.003Z,47.85
2019-03-03T03:09:26.847Z,47.70
2019-03-03T03:12:01.798Z,51.90
2019-03-03T03:14:33.614Z,54.20
2019-03-03T03:17:14.490Z,51.75
2019-03-03T03:19:52.215Z,50.03
2019-03-03T03:22:40.536Z,47.60
2019-03-03T03:25:24.294Z,51.60
2019-03-03T03:28:07.837Z,50.20
2019-03-03T03:30:39.588Z,51.75
2019-03-03T03:33:11.408Z,53.80
2019-03-03T03:35:43.152Z,53.48
2019-03-03T03:38:17.701Z,52.75
2019-03-03T03:40:49.451Z,51.92
2019-03-03T03:43:30.098Z,52.10
2019-03-03T03:46:19.921Z,53.98
2019-03-03T03:48:53.330Z,55.15
2019-03-03T03:51:40.414Z,55.63
2019-03-03T03:54:18.165Z,60.45
2019-03-03T03:56:49.927Z,60.58
2019-03-03T03:59:24.483Z,63.87
2019-03-03T04:01:56.258Z,61.10
2019-03-03T04:04:28.079Z,60.23
2019-03-03T04:07:05.738Z,63.40
2019-03-03T04:09:37.558Z,62.03
2019-03-03T04:12:18.613Z,67.25
2019-03-03T04:14:53.439Z,72.42
2019-03-03T04:17:25.251Z,67.67
2019-03-03T04:20:00.367Z,71.65
2019-03-03T04:22:35.527Z,63.45
2019-03-03T04:25:10.446Z,59.50
2019-03-03T04:27:42.201Z,65.00
2019-03-03T04:30:14.005Z,62.98
2019-03-03T04:32:52.003Z,59.93
2019-03-03T04:35:26.674Z,69.40
2019-03-03T04:37:58.431Z,65.28
2019-03-03T04:40:39.163Z,61.42
2019-03-03T04:43:17.150Z,61.35
2019-03-03T04:45:54.633Z,60.95
2019-03-03T04:48:30.441Z,69.80
2019-03-03T04:51:05.389Z,67.45
2019-03-03T04:53:40.034Z,67.27
2019-03-03T04:56:30.189Z,66.00
2019-03-03T04:59:07.981Z,63.52
2019-03-03T05:01:51.932Z,65.52
2019-03-03T05:04:23.903Z,61.10
2019-03-03T05:07:07.629Z,63.85
2019-03-03T05:09:42.104Z,63.28
2019-03-03T05:12:34.358Z,61.73
2019-03-03T05:15:20.670Z,67.12
2019-03-03T05:17:52.486Z,60.23
2019-03-03T05:20:22.694Z,60.73
2019-03-03T05:22:52.973Z,65.55
2019-03-03T05:25:23.252Z,69.53
2019-03-03T05:27:53.438Z,67.17
2019-03-03T05:30:23.608Z,65.28
2019-03-03T05:32:53.866Z,61.63
2019-03-03T05:35:24.051Z,63.15
2019-03-03T05:37:54.291Z,58.55
2019-03-03T05:40:24.600Z,60.70
2019-03-03T05:42:54.899Z,61.83
2019-03-03T05:45:25.128Z,60.25
2019-03-03T05:47:55.390Z,65.52
2019-03-03T05:50:25.574Z,60.40
2019-03-03T05:52:55.885Z,60.80
2019-03-03T05:55:26.135Z,64.55
2019-03-03T05:57:56.392Z,60.55
2019-03-03T06:00:26.580Z,59.93
2019-03-03T06:02:56.867Z,58.50
2019-03-03T06:05:27.048Z,60.85
2019-03-03T06:07:57.309Z,59.42
2019-03-03T06:10:27.542Z,64.25
2019-03-03T06:12:57.803Z,69.22
2019-03-03T06:15:28.029Z,91.72
2019-03-03T06:17:58.281Z,65.55
2019-03-03T06:20:28.538Z,62.03
2019-03-03T06:22:58.773Z,59.83
2019-03-03T06:25:29.018Z,58.87
2019-03-03T06:27:59.253Z,62.30
2019-03-03T06:30:29.578Z,59.33
2019-03-03T06:32:59.884Z,61.05
2019-03-03T06:35:31.229Z,60.65
2019-03-03T06:38:01.471Z,62.45
2019-03-03T06:40:31.743Z,60.55
2019-03-03T06:43:02.045Z,60.70
2019-03-03T06:45:32.294Z,70.65
2019-03-03T06:48:02.534Z,71.37
2019-03-03T06:50:32.781Z,75.87
2019-03-03T06:53:03.037Z,74.55
2019-03-03T06:55:33.261Z,64.53
2019-03-03T06:58:03.620Z,60.70
2019-03-03T07:00:33.856Z,60.70
2019-03-03T07:03:04.152Z,65.35
2019-03-03T07:05:34.496Z,63.73
2019-03-03T07:08:04.741Z,58.28
2019-03-03T07:10:35.039Z,57.98
2019-03-03T07:13:05.294Z,59.88
2019-03-03T07:15:35.574Z,58.17
2019-03-03T07:18:05.824Z,56.70
2019-03-03T07:20:36.057Z,59.25
2019-03-03T07:23:06.305Z,57.98
2019-03-03T07:25:36.577Z,56.68
2019-03-03T07:28:08.021Z,55.65
2019-03-03T07:30:38.266Z,55.15
2019-03-03T07:33:10.082Z,56.40
2019-03-03T07:35:40.414Z,54.20
2019-03-03T07:38:10.648Z,52.73
2019-03-03T07:40:40.879Z,52.88
2019-03-03T07:43:11.105Z,53.70
2019-03-03T07:45:42.643Z,56.92
2019-03-03T07:48:12.874Z,55.92
2019-03-03T07:50:43.108Z,55.95
2019-03-03T07:53:13.365Z,58.55
2019-03-03T07:55:43.603Z,55.85
2019-03-03T07:58:13.835Z,55.95
2019-03-03T08:00:44.072Z,56.65
2019-03-03T08:03:14.364Z,55.70
2019-03-03T08:05:44.646Z,56.85
2019-03-03T08:08:15.308Z,58.23
2019-03-03T08:10:45.507Z,61.83
2019-03-03T08:13:15.872Z,61.25
2019-03-03T08:15:46.092Z,63.85
2019-03-03T08:18:16.473Z,65.20
2019-03-03T08:20:46.770Z,63.73
2019-03-03T08:23:17.146Z,60.28
2019-03-03T08:25:48.665Z,66.12
2019-03-03T08:28:18.903Z,67.10
2019-03-03T08:30:49.226Z,66.05
2019-03-03T08:33:19.467Z,69.55
2019-03-03T08:35:49.674Z,75.22
2019-03-03T08:38:19.938Z,72.15
2019-03-03T08:40:50.139Z,82.67
2019-03-03T08:43:33.599Z,89.90
2019-03-03T08:46:05.382Z,82.57
2019-03-03T08:48:41.526Z,79.25
2019-03-03T08:51:14.494Z,78.30
2019-03-03T08:53:48.777Z,78.00
2019-03-03T08:56:20.549Z,78.92
2019-03-03T08:58:58.366Z,75.20
2019-03-03T09:01:30.125Z,78.83
2019-03-03T09:04:11.204Z,80.05
2019-03-03T09:06:58.244Z,73.28
2019-03-03T09:09:32.549Z,76.47
2019-03-03T09:12:20.580Z,75.52
2019-03-03T09:15:08.638Z,76.75
2019-03-03T09:17:49.310Z,76.07
2019-03-03T09:20:27.158Z,75.45
2019-03-03T09:22:59.053Z,73.50
2019-03-03T09:25:33.863Z,72.72
2019-03-03T09:28:23.757Z,71.87
2019-03-03T09:30:55.628Z,74.82
2019-03-03T09:33:45.712Z,80.53
2019-03-03T09:36:20.250Z,79.47
2019-03-03T09:39:07.127Z,81.37
2019-03-03T09:41:46.288Z,80.28
2019-03-03T09:44:18.073Z,81.70
2019-03-03T09:46:49.923Z,84.30
2019-03-03T09:49:30.939Z,86.85
2019-03-03T09:52:19.277Z,83.50
2019-03-03T09:55:07.426Z,84.03
2019-03-03T09:57:48.446Z,84.95
2019-03-03T10:00:29.469Z,84.15
2019-03-03T10:03:01.275Z,90.17
2019-03-03T10:05:36.175Z,87.45
2019-03-03T10:08:11.085Z,87.67
2019-03-03T10:10:42.843Z,86.08
2019-03-03T10:13:14.680Z,86.40
2019-03-03T10:15:58.483Z,85.42
2019-03-03T10:18:33.092Z,85.28
2019-03-03T10:21:16.617Z,87.30
2019-03-03T10:24:00.329Z,88.67
2019-03-03T10:26:48.542Z,86.72
2019-03-03T10:29:20.361Z,83.97
2019-03-03T10:32:07.066Z,88.97
2019-03-03T10:34:47.738Z,87.33
2019-03-03T10:37:22.760Z,85.60
2019-03-03T10:39:54.570Z,85.42
2019-03-03T10:42:29.064Z,87.20
2019-03-03T10:45:17.133Z,84.30
2019-03-03T10:47:57.848Z,84.50
2019-03-03T10:50:38.952Z,80.15
2019-03-03T10:53:13.486Z,76.62
2019-03-03T10:55:51.509Z,79.10
2019-03-03T10:58:32.296Z,77.50
2019-03-03T11:01:22.155Z,81.65
2019-03-03T11:04:02.717Z,79.92
2019-03-03T11:06:37.447Z,83.52
2019-03-03T11:09:27.148Z,85.12
2019-03-03T11:12:17.444Z,81.45
2019-03-03T11:14:49.274Z,81.35
2019-03-03T11:17:24.201Z,79.87
2019-03-03T11:19:59.004Z,78.83
2019-03-03T11:22:37.838Z,81.17
2019-03-03T11:25:10.971Z,83.17
2019-03-03T11:27:42.787Z,79.47
2019-03-03T11:30:23.375Z,78.20
2019-03-03T11:32:59.301Z,76.55
2019-03-03T11:35:31.051Z,73.35
2019-03-03T11:38:08.491Z,75.90
2019-03-03T11:40:56.539Z,75.97
2019-03-03T11:43:37.155Z,77.22
2019-03-03T11:46:11.668Z,76.30
2019-03-03T11:48:43.571Z,75.97
2019-03-03T11:51:31.862Z,76.67
2019-03-03T11:54:09.715Z,78.55
2019-03-03T11:56:44.459Z,72.40
2019-03-03T11:59:16.280Z,78.05
2019-03-03T12:01:54.042Z,72.78
2019-03-03T12:04:25.854Z,75.30
2019-03-03T12:07:09.581Z,71.77
2019-03-03T12:09:41.392Z,68.05
2019-03-03T12:12:13.154Z,68.30
2019-03-03T12:14:47.815Z,71.47
2019-03-03T12:17:35.801Z,67.87
2019-03-03T12:20:24.912Z,65.40
2019-03-03T12:23:08.663Z,69.07
2019-03-03T12:25:58.875Z,65.57
2019-03-03T12:28:30.624Z,65.05
2019-03-03T12:31:02.389Z,63.25
2019-03-03T12:33:34.212Z,62.13
2019-03-03T12:36:20.936Z,59.90
2019-03-03T12:38:55.488Z,61.48
2019-03-03T12:41:42.357Z,60.95
2019-03-03T12:44:14.174Z,61.95
2019-03-03T12:46:58.129Z,63.55
2019-03-03T12:49:47.604Z,57.65
2019-03-03T12:52:35.583Z,60.00
2019-03-03T12:55:09.699Z,61.90
2019-03-03T12:57:41.477Z,64.60
2019-03-03T13:00:19.639Z,61.55
2019-03-03T13:02:51.626Z,58.60
2019-03-03T13:05:38.770Z,56.77
2019-03-03T13:08:10.528Z,53.50
2019-03-03T13:10:48.586Z,53.17
2019-03-03T13:13:23.462Z,55.83
2019-03-03T13:16:11.922Z,56.70
2019-03-03T13:18:43.676Z,51.53
2019-03-03T13:21:21.493Z,53.83
2019-03-03T13:24:09.657Z,51.48
2019-03-03T13:26:41.485Z,55.83
2019-03-03T13:29:13.258Z,54.75
2019-03-03T13:31:54.208Z,55.00
2019-03-03T13:34:28.797Z,52.73
2019-03-03T13:37:06.367Z,53.30
2019-03-03T13:39:38.120Z,50.85
2019-03-03T13:42:12.689Z,49.98
2019-03-03T13:44:42.877Z,49.93
2019-03-03T13:47:13.121Z,50.75
2019-03-03T13:49:43.288Z,53.78
2019-03-03T13:52:13.527Z,54.65
2019-03-03T13:54:43.714Z,47.00
2019-03-03T13:57:13.966Z,45.45
2019-03-03T13:59:44.175Z,46.83
2019-03-03T14:02:14.525Z,44.55
2019-03-03T14:04:44.736Z,45.95
2019-03-03T14:07:15.017Z,45.25
2019-03-03T14:09:45.204Z,46.00
2019-03-03T14:12:15.461Z,46.40
2019-03-03T14:14:45.657Z,45.73
2019-03-03T14:17:15.905Z,43.87
2019-03-03T14:19:46.104Z,41.63
2019-03-03T14:22:16.355Z,42.78
2019-03-03T14:24:46.707Z,41.98
2019-03-03T14:27:17.018Z,39.35
2019-03-03T14:29:47.255Z,41.75
2019-03-03T14:32:17.511Z,40.23
2019-03-03T14:34:47.801Z,40.05
2019-03-03T14:37:18.079Z,39.20
2019-03-03T14:39:48.335Z,39.80
2019-03-03T14:42:18.579Z,39.65
2019-03-03T14:44:48.830Z,42.43
2019-03-03T14:47:20.167Z,39.95
2019-03-03T14:49:50.404Z,41.98
2019-03-03T14:52:20.663Z,41.45
2019-03-03T14:54:50.908Z,42.88
2019-03-03T14:57:21.207Z,39.13
2019-03-03T14:59:51.444Z,39.65
2019-03-03T15:02:21.753Z,38.42
2019-03-03T15:04:52.004Z,38.00
2019-03-03T15:07:22.258Z,41.05
2019-03-03T15:10:04.450Z,40.35
2019-03-03T15:12:34.703Z,42.05
2019-03-03T15:15:07.683Z,39.75
2019-03-03T15:17:38.941Z,36.95
2019-03-03T15:20:09.190Z,35.33
2019-03-03T15:22:39.468Z,35.58
2019-03-03T15:25:11.644Z,35.70
2019-03-03T15:27:41.906Z,35.83
2019-03-03T15:30:18.835Z,34.98
2019-03-03T15:32:49.190Z,37.15
2019-03-03T15:35:19.450Z,37.38
2019-03-03T15:37:49.734Z,37.08
2019-03-03T15:40:22.528Z,35.33
2019-03-03T15:42:53.150Z,35.15
2019-03-03T15:45:29.969Z,36.42
2019-03-03T15:48:00.197Z,34.75
2019-03-03T15:50:30.464Z,34.48
2019-03-03T15:53:00.735Z,34.05
2019-03-03T15:55:32.375Z,34.33
2019-03-03T15:58:02.635Z,34.53
2019-03-03T16:00:35.121Z,35.52
2019-03-03T16:03:05.530Z,34.33
2019-03-03T16:05:36.717Z,37.15
2019-03-03T16:08:07.120Z,37.98
2019-03-03T16:10:37.593Z,38.60
2019-03-03T16:13:07.991Z,37.70
2019-03-03T16:15:38.679Z,37.13
2019-03-03T16:18:09.293Z,37.35
2019-03-03T16:20:40.039Z,39.60
2019-03-03T16:23:10.778Z,39.18
2019-03-03T16:25:41.575Z,39.35
2019-03-03T16:28:12.188Z,38.17
2019-03-03T16:30:42.900Z,38.50
2019-03-03T16:33:19.996Z,37.65
2019-03-03T16:38:18.495Z,38.67
2019-03-03T16:40:49.229Z,38.70
2019-03-03T16:43:19.851Z,38.70
2019-03-03T16:45:50.569Z,41.42
2019-03-03T16:48:21.209Z,58.58
2019-03-03T16:50:51.929Z,43.08
2019-03-03T16:53:22.646Z,80.10
2019-03-03T16:55:53.414Z,52.15
2019-03-03T16:58:24.009Z,55.08
2019-03-03T17:00:54.733Z,41.25
2019-03-03T17:03:25.358Z,41.88
2019-03-03T17:05:56.115Z,41.40
2019-03-03T17:08:26.747Z,41.48
2019-03-03T17:10:57.517Z,41.75
2019-03-03T17:13:28.177Z,40.40
2019-03-03T17:15:58.912Z,41.75
2019-03-03T17:18:29.515Z,41.10
2019-03-03T17:21:00.222Z,40.12
2019-03-03T17:23:30.959Z,44.65
2019-03-03T17:26:01.675Z,43.63
2019-03-03T17:28:32.305Z,48.73
2019-03-03T17:31:03.026Z,43.15
2019-03-03T17:33:33.667Z,43.13
2019-03-03T17:36:04.367Z,43.28
2019-03-03T17:38:36.076Z,52.60
2019-03-03T17:41:06.851Z,44.88
2019-03-03T17:43:37.672Z,44.75
2019-03-03T17:46:08.381Z,44.77
2019-03-03T17:48:39.015Z,42.23
2019-03-03T17:51:09.745Z,44.53
2019-03-03T17:53:40.434Z,44.48
2019-03-03T17:56:11.436Z,49.58
2019-03-03T17:58:42.063Z,56.55
2019-03-03T18:01:12.836Z,46.40
2019-03-03T18:03:43.588Z,46.48
2019-03-03T18:06:14.283Z,52.62
2019-03-03T18:08:44.905Z,50.60
2019-03-03T18:11:15.519Z,50.55
2019-03-03T18:13:46.295Z,50.23
2019-03-03T18:16:17.183Z,48.08
2019-03-03T18:18:47.910Z,51.08
2019-03-03T18:21:20.046Z,48.10
2019-03-03T18:23:51.661Z,49.35
2019-03-03T18:26:22.356Z,48.13
2019-03-03T18:28:52.963Z,46.65
2019-03-03T18:31:23.582Z,55.35
2019-03-03T18:33:53.966Z,48.10
2019-03-03T18:36:24.573Z,53.85
2019-03-03T18:38:55.022Z,55.08
2019-03-03T18:41:25.682Z,55.08
2019-03-03T18:43:56.080Z,55.15
2019-03-03T18:46:26.470Z,53.65
2019-03-03T18:48:56.884Z,52.20
2019-03-03T18:51:27.273Z,54.13
2019-03-03T18:53:57.611Z,51.33
2019-03-03T18:56:27.887Z,54.42
2019-03-03T18:58:58.078Z,51.18
2019-03-03T19:01:28.329Z,51.00
2019-03-03T19:03:58.846Z,50.80
2019-03-03T19:06:29.489Z,48.63
2019-03-03T19:09:00.028Z,48.10
2019-03-03T19:11:30.613Z,50.65
2019-03-03T19:14:00.861Z,48.00
2019-03-03T19:16:31.221Z,48.45
2019-03-03T19:19:01.516Z,44.67
2019-03-03T19:21:31.840Z,46.37
2019-03-03T19:24:02.231Z,44.75
2019-03-03T19:26:32.532Z,51.20
2019-03-03T19:29:02.886Z,48.05
2019-03-03T19:31:33.506Z,47.43
2019-03-03T19:34:04.134Z,45.98
2019-03-03T19:36:36.537Z,47.27
2019-03-03T19:39:07.051Z,47.25
2019-03-03T19:41:39.090Z,42.78
2019-03-03T19:44:11.247Z,42.88
2019-03-03T19:46:41.841Z,41.40
2019-03-03T19:49:12.611Z,41.18
2019-03-03T19:51:43.197Z,40.43
2019-03-03T19:54:13.945Z,41.18
2019-03-03T19:56:44.678Z,42.15
2019-03-03T19:59:15.006Z,41.25
2019-03-03T20:01:45.683Z,41.45
2019-03-03T20:04:16.172Z,42.85
2019-03-03T20:06:46.816Z,41.28
2019-03-03T20:09:18.249Z,42.00
2019-03-03T20:11:48.939Z,42.77
2019-03-03T20:14:20.816Z,41.55
2019-03-03T20:16:51.247Z,43.02
2019-03-03T20:19:21.503Z,41.37
2019-03-03T20:21:51.769Z,44.05
2019-03-03T20:24:22.032Z,42.73
2019-03-03T20:26:52.413Z,42.65
2019-03-03T20:29:22.616Z,44.13
2019-03-03T20:31:52.983Z,41.35
2019-03-03T20:34:23.179Z,42.15
2019-03-03T20:36:53.543Z,43.20
2019-03-03T20:39:23.716Z,42.65
2019-03-03T20:41:53.981Z,43.20
2019-03-03T20:44:24.382Z,42.98
2019-03-03T20:46:54.647Z,40.35
2019-03-03T20:49:24.911Z,43.08
2019-03-03T20:51:55.192Z,43.42
2019-03-03T20:54:25.455Z,43.00
2019-03-03T20:56:55.785Z,41.68
2019-03-03T20:59:26.020Z,42.38
2019-03-03T21:01:56.313Z,43.25
2019-03-03T21:04:26.677Z,41.48
2019-03-03T21:06:56.914Z,43.30
2019-03-03T21:09:27.168Z,41.83
2019-03-03T21:11:57.427Z,42.00
2019-03-03T21:14:27.664Z,42.65
2019-03-03T21:16:57.925Z,42.73
2019-03-03T21:19:28.159Z,41.08
2019-03-03T21:21:58.379Z,38.70
2019-03-03T21:24:28.601Z,39.20
2019-03-03T21:26:58.847Z,40.40
2019-03-03T21:29:30.218Z,41.25
2019-03-03T21:32:00.451Z,42.58
2019-03-03T21:34:30.611Z,43.92
2019-03-03T21:37:00.848Z,50.28
2019-03-03T21:39:31.025Z,50.70
2019-03-03T21:42:01.273Z,52.62
2019-03-03T21:44:31.464Z,52.40
2019-03-03T21:47:02.806Z,53.07
2019-03-03T21:49:34.183Z,50.90
2019-03-03T21:52:04.426Z,52.73
2019-03-03T21:54:34.605Z,52.95
2019-03-03T21:57:04.961Z,55.10
2019-03-03T21:59:35.132Z,54.25
2019-03-03T22:02:05.378Z,53.70
2019-03-03T22:04:35.648Z,54.77
2019-03-03T22:07:05.883Z,55.60
2019-03-03T22:09:36.072Z,55.75
2019-03-03T22:12:06.324Z,53.30
2019-03-03T22:14:36.506Z,53.90
2019-03-03T22:17:06.742Z,53.73
2019-03-03T22:19:36.916Z,54.00
2019-03-03T22:22:07.159Z,56.65
2019-03-03T22:24:37.336Z,56.83
2019-03-03T22:27:07.577Z,56.05
2019-03-03T22:29:37.862Z,56.88
2019-03-03T22:32:09.214Z,57.90
2019-03-03T22:34:39.400Z,57.78
2019-03-03T22:37:09.643Z,54.90
2019-03-03T22:39:39.824Z,58.35
2019-03-03T22:42:10.076Z,57.27
2019-03-03T22:44:40.252Z,57.53
2019-03-03T22:47:10.483Z,55.78
2019-03-03T22:49:40.665Z,60.10
2019-03-03T22:52:10.904Z,58.65
2019-03-03T22:54:41.075Z,58.15
2019-03-03T22:57:11.312Z,53.52
2019-03-03T22:59:41.470Z,54.83
2019-03-03T23:02:12.479Z,55.12
2019-03-03T23:04:51.514Z,57.95
2019-03-03T23:07:43.702Z,56.95
2019-03-03T23:10:39.676Z,57.17
2019-03-03T23:13:25.275Z,55.00
2019-03-03T23:16:13.382Z,52.75
2019-03-03T23:19:02.045Z,52.40
2019-03-03T23:21:35.333Z,53.83
2019-03-03T23:24:20.529Z,51.55
2019-03-03T23:26:50.687Z,52.45
2019-03-03T23:29:20.939Z,55.23
2019-03-03T23:31:51.116Z,54.73
2019-03-03T23:34:21.377Z,52.98
2019-03-03T23:36:52.843Z,53.65
2019-03-03T23:39:23.072Z,52.50
2019-03-03T23:41:53.232Z,53.30
2019-03-03T23:44:23.474Z,52.00
2019-03-03T23:46:53.642Z,51.92
2019-03-03T23:49:23.872Z,52.17
2019-03-03T23:51:54.027Z,50.10
2019-03-03T23:54:24.280Z,51.25
2019-03-03T23:56:54.453Z,50.98
2019-03-03T23:59:24.672Z,52.78
